createdAt,value
2022-11-05T00:02:39.768Z,20.68
2022-11-05T00:10:27.966Z,20.67
2022-11-05T00:18:13.518Z,20.68
2022-11-05T00:25:59.633Z,20.58
2022-11-05T00:33:26.409Z,20.54
2022-11-05T00:41:09.338Z,20.55
2022-11-05T00:48:51.848Z,20.52
2022-11-05T00:56:25.082Z,20.51
2022-11-05T01:03:57.912Z,20.53
2022-11-05T01:11:38.435Z,20.51
2022-11-05T01:19:12.980Z,20.52
2022-11-05T01:26:50.634Z,20.51
2022-11-05T01:34:29.412Z,20.48
2022-11-05T01:42:01.162Z,20.51
2022-11-05T01:49:59.894Z,20.49
2022-11-05T01:58:11.837Z,20.51
2022-11-05T02:06:00.696Z,20.51
2022-11-05T02:13:55.667Z,20.47
2022-11-05T02:22:04.479Z,20.52
2022-11-05T02:30:05.592Z,20.59
2022-11-05T02:38:09.991Z,20.58
2022-11-05T02:46:21.067Z,20.58
2022-11-05T02:54:44.237Z,20.55
2022-11-05T03:02:50.747Z,20.55
2022-11-05T03:11:01.051Z,20.49
2022-11-05T03:19:10.118Z,20.54
2022-11-05T03:27:22.456Z,20.51
2022-11-05T03:35:35.688Z,20.48
2022-11-05T03:43:50.036Z,20.52
2022-11-05T03:52:05.034Z,20.42
2022-11-05T04:00:08.274Z,20.43
2022-11-05T04:07:43.969Z,20.42
2022-11-05T04:15:28.525Z,20.42
2022-11-05T04:23:20.456Z,20.43
2022-11-05T04:31:01.076Z,20.41
2022-11-05T04:38:43.791Z,20.39
2022-11-05T04:46:18.425Z,20.38
2022-11-05T04:53:55.930Z,20.4
2022-11-05T05:01:41.173Z,20.4
2022-11-05T05:09:17.129Z,20.45
2022-11-05T05:17:05.074Z,20.94
2022-11-05T05:24:38.626Z,21
2022-11-05T05:32:21.792Z,21.09
2022-11-05T05:39:54.593Z,21.08
2022-11-05T05:47:26.450Z,21.06
2022-11-05T05:55:06.559Z,21
2022-11-05T06:02:54.600Z,21
2022-11-05T06:10:29.308Z,20.98
2022-11-05T06:18:17.466Z,20.93
2022-11-05T06:26:02.560Z,20.98
2022-11-05T06:33:54.634Z,20.87
2022-11-05T06:41:57.207Z,20.89
2022-11-05T06:49:38.547Z,20.81
2022-11-05T06:57:12.592Z,20.81
2022-11-05T07:05:05.063Z,20.74
2022-11-05T07:12:53.185Z,20.73
2022-11-05T07:20:44.101Z,20.71
2022-11-05T07:28:23.531Z,20.7
2022-11-05T07:35:59.795Z,20.64
2022-11-05T07:43:41.191Z,20.66
2022-11-05T07:51:21.171Z,20.61
2022-11-05T07:58:54.624Z,20.6
2022-11-05T08:06:38.781Z,20.55
2022-11-05T08:14:16.294Z,20.54
2022-11-05T08:21:49.002Z,20.55
2022-11-05T08:29:38.654Z,20.55
2022-11-05T08:37:22.515Z,20.49
2022-11-05T08:45:08.060Z,20.43
2022-11-05T08:52:47.733Z,20.51
2022-11-05T09:00:30.950Z,20.46
2022-11-05T09:08:16.255Z,20.55
2022-11-05T09:16:02.649Z,20.57
2022-11-05T09:23:41.745Z,20.67
2022-11-05T09:31:26.762Z,20.64
2022-11-05T09:39:02.616Z,20.67
2022-11-05T09:46:58.120Z,20.63
2022-11-05T09:54:56.013Z,20.58
2022-11-05T10:02:56.164Z,20.49
2022-11-05T10:11:02.252Z,20.5
2022-11-05T10:19:13.400Z,20.44
2022-11-05T10:27:14.645Z,20.44
2022-11-05T10:34:58.016Z,20.42
2022-11-05T10:43:01.173Z,20.41
2022-11-05T10:51:06.828Z,20.39
2022-11-05T10:59:01.479Z,20.4
2022-11-05T11:07:07.391Z,20.38
2022-11-05T11:15:19.207Z,20.38
2022-11-05T11:23:15.169Z,20.38
2022-11-05T11:31:12.956Z,20.39
2022-11-05T11:39:17.284Z,20.44
2022-11-05T11:47:22.638Z,20.42
2022-11-05T11:55:36.732Z,20.39
2022-11-05T12:03:23.129Z,20.4
2022-11-05T12:11:31.399Z,20.39
2022-11-05T12:19:34.781Z,20.37
2022-11-05T12:27:49.210Z,20.37
2022-11-05T12:36:06.034Z,20.37
2022-11-05T12:44:28.207Z,20.45
2022-11-05T12:52:42.687Z,20.44
2022-11-05T13:01:03.456Z,20.43
2022-11-05T13:09:11.865Z,20.52
2022-11-05T13:17:20.427Z,20.46
2022-11-05T13:25:37.227Z,20.49
2022-11-05T13:33:53.185Z,20.67
2022-11-05T13:42:09.368Z,20.61
2022-11-05T13:50:19.028Z,20.62
2022-11-05T13:58:33.259Z,20.52
2022-11-05T14:06:39.923Z,20.61
2022-11-05T14:14:40.983Z,20.7
2022-11-05T14:22:53.423Z,20.68
2022-11-05T14:30:53.466Z,20.54
2022-11-05T14:39:01.468Z,20.56
2022-11-05T14:47:20.537Z,20.53
2022-11-05T14:55:42.786Z,20.48
2022-11-05T15:03:18.375Z,20.51
2022-11-05T15:11:32.864Z,20.45
2022-11-05T15:19:44.315Z,20.42
2022-11-05T15:27:46.181Z,20.42
2022-11-05T15:35:56.087Z,20.35
2022-11-05T15:44:15.123Z,20.38
2022-11-05T15:52:11.036Z,20.37
2022-11-05T16:00:18.917Z,20.34
2022-11-05T16:08:31.548Z,20.35
2022-11-05T16:16:39.257Z,20.4
2022-11-05T16:24:29.680Z,20.4
2022-11-05T16:32:31.761Z,20.39
2022-11-05T16:40:17.431Z,20.43
2022-11-05T16:48:11.340Z,20.33
2022-11-05T16:55:45.380Z,20.24
2022-11-05T17:03:38.835Z,20.22
2022-11-05T17:11:12.189Z,20.23
2022-11-05T17:18:52.118Z,20.23
2022-11-05T17:26:45.400Z,20.24
2022-11-05T17:34:15.270Z,20.24
2022-11-05T17:42:08.342Z,20.2
2022-11-05T17:49:41.926Z,20.21
2022-11-05T17:57:22.801Z,20.23
2022-11-05T18:05:11.372Z,20.35
2022-11-05T18:12:55.476Z,20.3
2022-11-05T18:20:31.131Z,20.26
2022-11-05T18:28:08.205Z,20.28
2022-11-05T18:35:54.840Z,20.23
2022-11-05T18:43:34.968Z,20.25
2022-11-05T18:51:08.636Z,20.19
2022-11-05T18:58:40.798Z,20.16
2022-11-05T19:06:31.221Z,20.15
2022-11-05T19:14:11.851Z,20.15
2022-11-05T19:21:41.451Z,20.13
2022-11-05T19:29:32.270Z,20.15
2022-11-05T19:37:13.114Z,20.13
2022-11-05T19:44:56.946Z,20.16
2022-11-05T19:52:52.301Z,20.16
2022-11-05T20:00:22.865Z,20.18
2022-11-05T20:07:59.144Z,20.16
2022-11-05T20:15:33.445Z,20.19
2022-11-05T20:23:28.363Z,20.17
2022-11-05T20:31:12.598Z,20.16
2022-11-05T20:38:58.995Z,20.16
2022-11-05T20:46:39.151Z,20.12
2022-11-05T20:54:25.514Z,20.09
2022-11-05T21:02:01.217Z,20.1
2022-11-05T21:09:39.135Z,20.12
2022-11-05T21:17:20.593Z,20.09
2022-11-05T21:24:56.159Z,20.1
2022-11-05T21:32:32.032Z,20.05
2022-11-05T21:40:20.303Z,20.07
2022-11-05T21:47:54.138Z,20.08
2022-11-05T21:55:32.855Z,20.08
2022-11-05T22:03:10.089Z,20.08
2022-11-05T22:10:59.945Z,20.09
2022-11-05T22:18:49.845Z,20.06
2022-11-05T22:26:37.940Z,20.14
2022-11-05T22:34:13.601Z,20.08
2022-11-05T22:41:51.090Z,20.06
2022-11-05T22:49:32.570Z,20.04
2022-11-05T22:57:21.313Z,20.06
2022-11-05T23:05:00.655Z,20.12
2022-11-05T23:12:34.187Z,20.08
2022-11-05T23:20:05.916Z,20.16
2022-11-05T23:27:42.914Z,20.07
2022-11-05T23:35:13.890Z,20.06
2022-11-05T23:42:40.562Z,20.09
2022-11-05T23:50:07.562Z,20.06
2022-11-05T23:57:57.959Z,20
